sensor_id;sensor_type;location;lat;lon;timestamp;P1;durP1;ratioP1;P2;durP2;ratioP2
42104;SDS011;61464;51.472;5.712;2022-08-11T00:01:46;5.47;;;3.03;;
42104;SDS011;61464;51.472;5.712;2022-08-11T00:04:15;6.78;;;3.55;;
42104;SDS011;61464;51.472;5.712;2022-08-11T00:06:47;7.68;;;3.25;;
42104;SDS011;61464;51.472;5.712;2022-08-11T00:09:20;5.30;;;2.90;;
42104;SDS011;61464;51.472;5.712;2022-08-11T00:11:55;4.80;;;2.95;;
42104;SDS011;61464;51.472;5.712;2022-08-11T00:14:23;4.88;;;2.90;;
42104;SDS011;61464;51.472;5.712;2022-08-11T00:17:04;8.15;;;3.38;;
42104;SDS011;61464;51.472;5.712;2022-08-11T00:19:34;6.18;;;3.42;;
42104;SDS011;61464;51.472;5.712;2022-08-11T00:22:08;10.70;;;3.30;;
42104;SDS011;61464;51.472;5.712;2022-08-11T00:24:37;4.38;;;3.10;;
42104;SDS011;61464;51.472;5.712;2022-08-11T00:27:06;5.55;;;2.80;;
42104;SDS011;61464;51.472;5.712;2022-08-11T00:29:32;6.32;;;3.00;;
42104;SDS011;61464;51.472;5.712;2022-08-11T00:31:59;6.00;;;3.20;;
42104;SDS011;61464;51.472;5.712;2022-08-11T00:34:33;7.20;;;3.10;;
42104;SDS011;61464;51.472;5.712;2022-08-11T00:37:03;7.05;;;3.17;;
42104;SDS011;61464;51.472;5.712;2022-08-11T00:39:45;7.93;;;2.90;;
42104;SDS011;61464;51.472;5.712;2022-08-11T00:48:25;4.50;;;3.08;;
42104;SDS011;61464;51.472;5.712;2022-08-11T01:35:34;6.05;;;3.60;;
42104;SDS011;61464;51.472;5.712;2022-08-11T01:44:19;4.18;;;3.13;;
42104;SDS011;61464;51.472;5.712;2022-08-11T02:00:05;6.15;;;3.13;;
42104;SDS011;61464;51.472;5.712;2022-08-11T02:02:51;6.75;;;3.92;;
42104;SDS011;61464;51.472;5.712;2022-08-11T02:09:09;4.03;;;3.17;;
42104;SDS011;61464;51.472;5.712;2022-08-11T02:11:44;7.30;;;3.55;;
42104;SDS011;61464;51.472;5.712;2022-08-11T02:14:33;6.25;;;3.53;;
42104;SDS011;61464;51.472;5.712;2022-08-11T02:17:17;9.87;;;3.63;;
42104;SDS011;61464;51.472;5.712;2022-08-11T02:52:02;10.80;;;4.50;;
42104;SDS011;61464;51.472;5.712;2022-08-11T02:54:42;8.30;;;4.43;;
42104;SDS011;61464;51.472;5.712;2022-08-11T03:00:29;10.55;;;4.50;;
42104;SDS011;61464;51.472;5.712;2022-08-11T03:03:28;7.65;;;4.20;;
42104;SDS011;61464;51.472;5.712;2022-08-11T03:06:11;9.52;;;4.40;;
42104;SDS011;61464;51.472;5.712;2022-08-11T03:09:02;6.30;;;4.88;;
42104;SDS011;61464;51.472;5.712;2022-08-11T03:15:01;10.70;;;4.20;;
42104;SDS011;61464;51.472;5.712;2022-08-11T03:24:04;6.05;;;4.85;;
42104;SDS011;61464;51.472;5.712;2022-08-11T03:27:02;10.48;;;4.55;;
42104;SDS011;61464;51.472;5.712;2022-08-11T03:30:04;9.63;;;4.43;;
42104;SDS011;61464;51.472;5.712;2022-08-11T03:32:50;6.43;;;4.35;;
42104;SDS011;61464;51.472;5.712;2022-08-11T03:41:33;6.28;;;4.68;;
42104;SDS011;61464;51.472;5.712;2022-08-11T03:50:06;7.93;;;5.07;;
42104;SDS011;61464;51.472;5.712;2022-08-11T03:55:57;11.27;;;4.70;;
42104;SDS011;61464;51.472;5.712;2022-08-11T04:01:36;7.80;;;4.70;;
42104;SDS011;61464;51.472;5.712;2022-08-11T04:45:52;9.60;;;5.13;;
42104;SDS011;61464;51.472;5.712;2022-08-11T04:58:54;7.43;;;5.20;;
42104;SDS011;61464;51.472;5.712;2022-08-11T05:05:11;9.23;;;5.60;;
42104;SDS011;61464;51.472;5.712;2022-08-11T05:11:29;10.43;;;5.05;;
42104;SDS011;61464;51.472;5.712;2022-08-11T05:16:57;8.40;;;5.07;;
42104;SDS011;61464;51.472;5.712;2022-08-11T05:19:57;8.80;;;5.05;;
42104;SDS011;61464;51.472;5.712;2022-08-11T05:22:49;11.05;;;5.15;;
42104;SDS011;61464;51.472;5.712;2022-08-11T05:25:35;14.75;;;5.68;;
42104;SDS011;61464;51.472;5.712;2022-08-11T05:28:32;14.50;;;6.28;;
42104;SDS011;61464;51.472;5.712;2022-08-11T05:31:24;6.78;;;5.25;;
42104;SDS011;61464;51.472;5.712;2022-08-11T05:34:21;12.10;;;6.57;;
42104;SDS011;61464;51.472;5.712;2022-08-11T05:40:04;10.55;;;5.60;;
42104;SDS011;61464;51.472;5.712;2022-08-11T05:42:57;10.63;;;5.68;;
42104;SDS011;61464;51.472;5.712;2022-08-11T05:45:55;10.15;;;5.78;;
42104;SDS011;61464;51.472;5.712;2022-08-11T05:48:41;11.32;;;6.63;;
42104;SDS011;61464;51.472;5.712;2022-08-11T05:54:25;10.43;;;5.47;;
42104;SDS011;61464;51.472;5.712;2022-08-11T05:57:18;9.50;;;5.95;;
42104;SDS011;61464;51.472;5.712;2022-08-11T05:59:56;8.80;;;5.88;;
42104;SDS011;61464;51.472;5.712;2022-08-11T06:02:38;12.10;;;5.90;;
42104;SDS011;61464;51.472;5.712;2022-08-11T06:05:13;9.95;;;5.70;;
42104;SDS011;61464;51.472;5.712;2022-08-11T06:07:40;8.18;;;5.00;;
42104;SDS011;61464;51.472;5.712;2022-08-11T06:10:07;14.00;;;6.13;;
42104;SDS011;61464;51.472;5.712;2022-08-11T06:12:34;9.45;;;5.38;;
42104;SDS011;61464;51.472;5.712;2022-08-11T06:15:09;8.88;;;5.40;;
42104;SDS011;61464;51.472;5.712;2022-08-11T06:20:11;7.80;;;5.28;;
42104;SDS011;61464;51.472;5.712;2022-08-11T06:22:40;6.50;;;4.57;;
42104;SDS011;61464;51.472;5.712;2022-08-11T06:25:09;7.30;;;4.60;;
42104;SDS011;61464;51.472;5.712;2022-08-11T06:27:37;6.68;;;4.60;;
42104;SDS011;61464;51.472;5.712;2022-08-11T06:30:05;7.80;;;4.60;;
42104;SDS011;61464;51.472;5.712;2022-08-11T06:32:37;7.10;;;4.90;;
42104;SDS011;61464;51.472;5.712;2022-08-11T06:35:20;8.05;;;4.38;;
42104;SDS011;61464;51.472;5.712;2022-08-11T06:41:06;8.75;;;4.93;;
42104;SDS011;61464;51.472;5.712;2022-08-11T06:44:04;7.88;;;4.97;;
42104;SDS011;61464;51.472;5.712;2022-08-11T06:46:38;7.70;;;4.82;;
42104;SDS011;61464;51.472;5.712;2022-08-11T06:54:34;6.93;;;4.70;;
42104;SDS011;61464;51.472;5.712;2022-08-11T06:57:08;7.68;;;5.35;;
42104;SDS011;61464;51.472;5.712;2022-08-11T06:59:57;7.75;;;4.32;;
42104;SDS011;61464;51.472;5.712;2022-08-11T07:14:44;8.05;;;5.05;;
42104;SDS011;61464;51.472;5.712;2022-08-11T07:17:41;10.00;;;4.65;;
42104;SDS011;61464;51.472;5.712;2022-08-11T07:20:34;9.07;;;4.53;;
42104;SDS011;61464;51.472;5.712;2022-08-11T07:23:20;11.13;;;4.65;;
42104;SDS011;61464;51.472;5.712;2022-08-11T07:26:06;8.48;;;4.60;;
42104;SDS011;61464;51.472;5.712;2022-08-11T07:29:09;10.85;;;4.97;;
42104;SDS011;61464;51.472;5.712;2022-08-11T07:31:40;10.20;;;4.85;;
42104;SDS011;61464;51.472;5.712;2022-08-11T07:34:27;10.73;;;4.53;;
42104;SDS011;61464;51.472;5.712;2022-08-11T07:37:03;9.20;;;5.35;;
42104;SDS011;61464;51.472;5.712;2022-08-11T07:39:35;11.65;;;5.40;;
42104;SDS011;61464;51.472;5.712;2022-08-11T07:42:06;10.68;;;5.43;;
42104;SDS011;61464;51.472;5.712;2022-08-11T07:44:38;12.55;;;5.30;;
42104;SDS011;61464;51.472;5.712;2022-08-11T07:47:25;11.00;;;5.40;;
42104;SDS011;61464;51.472;5.712;2022-08-11T07:50:11;9.20;;;5.40;;
42104;SDS011;61464;51.472;5.712;2022-08-11T07:52:57;8.82;;;5.43;;
42104;SDS011;61464;51.472;5.712;2022-08-11T07:55:24;8.82;;;4.88;;
42104;SDS011;61464;51.472;5.712;2022-08-11T07:57:55;12.93;;;5.80;;
42104;SDS011;61464;51.472;5.712;2022-08-11T08:00:52;17.75;;;5.30;;
42104;SDS011;61464;51.472;5.712;2022-08-11T08:03:40;8.25;;;5.38;;
42104;SDS011;61464;51.472;5.712;2022-08-11T08:06:27;11.52;;;5.90;;
42104;SDS011;61464;51.472;5.712;2022-08-11T08:09:12;12.40;;;5.55;;
42104;SDS011;61464;51.472;5.712;2022-08-11T08:12:03;8.93;;;4.97;;
42104;SDS011;61464;51.472;5.712;2022-08-11T08:14:50;14.07;;;5.28;;
42104;SDS011;61464;51.472;5.712;2022-08-11T08:17:36;12.82;;;5.55;;
42104;SDS011;61464;51.472;5.712;2022-08-11T08:20:18;7.93;;;4.72;;
42104;SDS011;61464;51.472;5.712;2022-08-11T08:22:49;8.82;;;4.03;;
42104;SDS011;61464;51.472;5.712;2022-08-11T08:25:21;14.23;;;4.82;;
42104;SDS011;61464;51.472;5.712;2022-08-11T08:27:56;13.60;;;4.85;;
42104;SDS011;61464;51.472;5.712;2022-08-11T08:30:24;8.63;;;4.88;;
42104;SDS011;61464;51.472;5.712;2022-08-11T08:33:11;10.73;;;4.88;;
42104;SDS011;61464;51.472;5.712;2022-08-11T08:35:47;15.57;;;4.35;;
42104;SDS011;61464;51.472;5.712;2022-08-11T08:38:49;10.50;;;4.53;;
42104;SDS011;61464;51.472;5.712;2022-08-11T08:41:21;10.15;;;4.50;;
42104;SDS011;61464;51.472;5.712;2022-08-11T08:43:52;11.60;;;4.55;;
42104;SDS011;61464;51.472;5.712;2022-08-11T08:46:28;10.20;;;4.68;;
42104;SDS011;61464;51.472;5.712;2022-08-11T08:49:01;8.63;;;3.50;;
42104;SDS011;61464;51.472;5.712;2022-08-11T08:51:28;14.27;;;3.88;;
42104;SDS011;61464;51.472;5.712;2022-08-11T08:54:06;8.57;;;4.00;;
42104;SDS011;61464;51.472;5.712;2022-08-11T08:56:41;9.45;;;4.70;;
42104;SDS011;61464;51.472;5.712;2022-08-11T08:59:09;12.45;;;4.28;;
42104;SDS011;61464;51.472;5.712;2022-08-11T09:01:42;4.50;;;3.58;;
42104;SDS011;61464;51.472;5.712;2022-08-11T09:04:17;8.77;;;4.05;;
42104;SDS011;61464;51.472;5.712;2022-08-11T09:06:44;6.57;;;3.90;;
42104;SDS011;61464;51.472;5.712;2022-08-11T09:09:11;9.27;;;3.80;;
42104;SDS011;61464;51.472;5.712;2022-08-11T09:11:39;6.80;;;3.88;;
42104;SDS011;61464;51.472;5.712;2022-08-11T09:14:23;7.57;;;3.53;;
42104;SDS011;61464;51.472;5.712;2022-08-11T09:17:20;9.77;;;4.40;;
42104;SDS011;61464;51.472;5.712;2022-08-11T09:19:48;9.48;;;4.70;;
42104;SDS011;61464;51.472;5.712;2022-08-11T09:22:27;5.50;;;3.45;;
42104;SDS011;61464;51.472;5.712;2022-08-11T09:25:19;8.70;;;3.95;;
42104;SDS011;61464;51.472;5.712;2022-08-11T09:28:09;9.38;;;4.28;;
42104;SDS011;61464;51.472;5.712;2022-08-11T09:30:39;12.85;;;4.60;;
42104;SDS011;61464;51.472;5.712;2022-08-11T09:33:08;8.13;;;3.42;;
42104;SDS011;61464;51.472;5.712;2022-08-11T09:35:36;10.30;;;3.97;;
42104;SDS011;61464;51.472;5.712;2022-08-11T09:38:07;12.02;;;4.00;;
42104;SDS011;61464;51.472;5.712;2022-08-11T09:40:55;14.32;;;4.53;;
42104;SDS011;61464;51.472;5.712;2022-08-11T09:43:24;10.00;;;4.40;;
42104;SDS011;61464;51.472;5.712;2022-08-11T09:46:11;7.97;;;3.92;;
42104;SDS011;61464;51.472;5.712;2022-08-11T09:48:39;6.95;;;4.03;;
42104;SDS011;61464;51.472;5.712;2022-08-11T09:51:09;13.07;;;4.18;;
42104;SDS011;61464;51.472;5.712;2022-08-11T09:53:37;15.40;;;4.30;;
42104;SDS011;61464;51.472;5.712;2022-08-11T09:56:07;8.95;;;4.28;;
42104;SDS011;61464;51.472;5.712;2022-08-11T09:58:57;10.60;;;3.80;;
42104;SDS011;61464;51.472;5.712;2022-08-11T10:01:27;11.45;;;3.70;;
42104;SDS011;61464;51.472;5.712;2022-08-11T10:06:44;8.68;;;3.22;;
42104;SDS011;61464;51.472;5.712;2022-08-11T10:09:38;10.80;;;3.38;;
42104;SDS011;61464;51.472;5.712;2022-08-11T10:12:13;9.77;;;3.10;;
42104;SDS011;61464;51.472;5.712;2022-08-11T10:14:47;8.95;;;3.05;;
42104;SDS011;61464;51.472;5.712;2022-08-11T10:17:51;7.15;;;3.30;;
42104;SDS011;61464;51.472;5.712;2022-08-11T10:20:43;12.43;;;2.70;;
42104;SDS011;61464;51.472;5.712;2022-08-11T10:23:15;6.63;;;2.95;;
42104;SDS011;61464;51.472;5.712;2022-08-11T10:26:01;6.75;;;3.00;;
42104;SDS011;61464;51.472;5.712;2022-08-11T10:28:47;9.05;;;3.10;;
42104;SDS011;61464;51.472;5.712;2022-08-11T10:31:14;9.07;;;2.92;;
42104;SDS011;61464;51.472;5.712;2022-08-11T10:36:28;7.45;;;2.97;;
42104;SDS011;61464;51.472;5.712;2022-08-11T10:39:12;8.68;;;2.70;;
42104;SDS011;61464;51.472;5.712;2022-08-11T10:41:46;9.13;;;3.10;;
42104;SDS011;61464;51.472;5.712;2022-08-11T10:44:35;11.27;;;2.97;;
42104;SDS011;61464;51.472;5.712;2022-08-11T10:47:04;6.93;;;2.70;;
42104;SDS011;61464;51.472;5.712;2022-08-11T10:49:51;12.13;;;3.05;;
42104;SDS011;61464;51.472;5.712;2022-08-11T10:52:37;6.70;;;2.70;;
42104;SDS011;61464;51.472;5.712;2022-08-11T10:55:23;6.45;;;2.65;;
42104;SDS011;61464;51.472;5.712;2022-08-11T10:58:09;8.38;;;2.70;;
42104;SDS011;61464;51.472;5.712;2022-08-11T11:00:54;6.85;;;2.63;;
42104;SDS011;61464;51.472;5.712;2022-08-11T11:03:25;5.50;;;2.33;;
42104;SDS011;61464;51.472;5.712;2022-08-11T11:05:56;6.57;;;2.60;;
42104;SDS011;61464;51.472;5.712;2022-08-11T11:08:44;11.07;;;2.80;;
42104;SDS011;61464;51.472;5.712;2022-08-11T11:11:18;7.65;;;2.90;;
42104;SDS011;61464;51.472;5.712;2022-08-11T11:14:09;9.20;;;3.20;;
42104;SDS011;61464;51.472;5.712;2022-08-11T11:16:57;9.48;;;2.65;;
42104;SDS011;61464;51.472;5.712;2022-08-11T11:19:43;4.03;;;2.63;;
42104;SDS011;61464;51.472;5.712;2022-08-11T11:22:10;9.57;;;2.33;;
42104;SDS011;61464;51.472;5.712;2022-08-11T11:33:39;10.73;;;2.58;;
42104;SDS011;61464;51.472;5.712;2022-08-11T11:36:49;10.63;;;2.67;;
42104;SDS011;61464;51.472;5.712;2022-08-11T11:39:30;5.93;;;2.45;;
42104;SDS011;61464;51.472;5.712;2022-08-11T11:42:03;4.95;;;2.47;;
42104;SDS011;61464;51.472;5.712;2022-08-11T11:44:33;7.75;;;2.53;;
42104;SDS011;61464;51.472;5.712;2022-08-11T11:47:00;10.38;;;2.60;;
42104;SDS011;61464;51.472;5.712;2022-08-11T11:49:27;10.82;;;2.50;;
42104;SDS011;61464;51.472;5.712;2022-08-11T11:51:56;4.32;;;2.60;;
42104;SDS011;61464;51.472;5.712;2022-08-11T11:54:24;7.20;;;2.22;;
42104;SDS011;61464;51.472;5.712;2022-08-11T11:56:57;7.10;;;2.38;;
42104;SDS011;61464;51.472;5.712;2022-08-11T11:59:44;4.88;;;2.50;;
42104;SDS011;61464;51.472;5.712;2022-08-11T12:02:32;5.63;;;2.40;;
42104;SDS011;61464;51.472;5.712;2022-08-11T12:05:00;6.28;;;2.70;;
42104;SDS011;61464;51.472;5.712;2022-08-11T12:07:27;10.38;;;2.72;;
42104;SDS011;61464;51.472;5.712;2022-08-11T12:10:13;4.47;;;2.33;;
42104;SDS011;61464;51.472;5.712;2022-08-11T12:12:41;7.93;;;2.65;;
42104;SDS011;61464;51.472;5.712;2022-08-11T12:15:27;4.13;;;2.70;;
42104;SDS011;61464;51.472;5.712;2022-08-11T12:17:54;7.20;;;2.50;;
42104;SDS011;61464;51.472;5.712;2022-08-11T12:20:20;9.50;;;2.53;;
42104;SDS011;61464;51.472;5.712;2022-08-11T12:22:47;7.55;;;2.80;;
42104;SDS011;61464;51.472;5.712;2022-08-11T12:28:17;7.65;;;2.78;;
42104;SDS011;61464;51.472;5.712;2022-08-11T12:30:46;6.35;;;2.80;;
42104;SDS011;61464;51.472;5.712;2022-08-11T12:33:17;6.05;;;2.70;;
42104;SDS011;61464;51.472;5.712;2022-08-11T12:35:45;6.40;;;2.60;;
42104;SDS011;61464;51.472;5.712;2022-08-11T12:38:16;6.35;;;2.58;;
42104;SDS011;61464;51.472;5.712;2022-08-11T12:40:45;4.03;;;2.40;;
42104;SDS011;61464;51.472;5.712;2022-08-11T12:43:31;4.95;;;2.70;;
42104;SDS011;61464;51.472;5.712;2022-08-11T12:46:21;5.22;;;2.22;;
42104;SDS011;61464;51.472;5.712;2022-08-11T12:48:57;7.45;;;2.65;;
42104;SDS011;61464;51.472;5.712;2022-08-11T12:51:48;12.02;;;2.78;;
42104;SDS011;61464;51.472;5.712;2022-08-11T12:57:10;7.35;;;2.47;;
42104;SDS011;61464;51.472;5.712;2022-08-11T13:00:01;8.63;;;2.90;;
42104;SDS011;61464;51.472;5.712;2022-08-11T13:02:51;6.40;;;2.42;;
42104;SDS011;61464;51.472;5.712;2022-08-11T13:05:38;4.95;;;2.35;;
42104;SDS011;61464;51.472;5.712;2022-08-11T13:08:07;3.85;;;2.53;;
42104;SDS011;61464;51.472;5.712;2022-08-11T13:10:33;4.82;;;2.13;;
42104;SDS011;61464;51.472;5.712;2022-08-11T13:13:20;8.40;;;2.38;;
42104;SDS011;61464;51.472;5.712;2022-08-11T13:15:47;4.38;;;2.33;;
42104;SDS011;61464;51.472;5.712;2022-08-11T13:18:17;5.47;;;2.55;;
42104;SDS011;61464;51.472;5.712;2022-08-11T13:20:47;6.15;;;2.22;;
42104;SDS011;61464;51.472;5.712;2022-08-11T13:23:15;4.60;;;2.50;;
42104;SDS011;61464;51.472;5.712;2022-08-11T13:25:42;5.20;;;2.63;;
42104;SDS011;61464;51.472;5.712;2022-08-11T13:28:08;6.78;;;2.53;;
42104;SDS011;61464;51.472;5.712;2022-08-11T13:30:36;6.47;;;2.47;;
42104;SDS011;61464;51.472;5.712;2022-08-11T13:33:21;3.60;;;2.53;;
42104;SDS011;61464;51.472;5.712;2022-08-11T13:35:49;5.80;;;2.35;;
42104;SDS011;61464;51.472;5.712;2022-08-11T13:38:20;4.10;;;2.00;;
42104;SDS011;61464;51.472;5.712;2022-08-11T13:40:48;7.68;;;2.45;;
42104;SDS011;61464;51.472;5.712;2022-08-11T13:43:18;7.03;;;2.55;;
42104;SDS011;61464;51.472;5.712;2022-08-11T13:45:46;7.20;;;2.40;;
42104;SDS011;61464;51.472;5.712;2022-08-11T13:48:13;6.45;;;2.85;;
42104;SDS011;61464;51.472;5.712;2022-08-11T13:50:41;4.25;;;2.50;;
42104;SDS011;61464;51.472;5.712;2022-08-11T13:53:26;5.55;;;2.60;;
42104;SDS011;61464;51.472;5.712;2022-08-11T13:55:56;7.68;;;2.50;;
42104;SDS011;61464;51.472;5.712;2022-08-11T13:58:24;8.05;;;2.80;;
42104;SDS011;61464;51.472;5.712;2022-08-11T14:00:51;4.80;;;2.35;;
42104;SDS011;61464;51.472;5.712;2022-08-11T14:03:25;6.47;;;2.80;;
42104;SDS011;61464;51.472;5.712;2022-08-11T14:05:52;6.22;;;2.70;;
42104;SDS011;61464;51.472;5.712;2022-08-11T14:08:23;7.13;;;2.90;;
42104;SDS011;61464;51.472;5.712;2022-08-11T14:10:59;7.68;;;2.90;;
42104;SDS011;61464;51.472;5.712;2022-08-11T14:13:46;5.85;;;3.03;;
42104;SDS011;61464;51.472;5.712;2022-08-11T14:16:17;6.47;;;2.55;;
42104;SDS011;61464;51.472;5.712;2022-08-11T14:18:59;7.63;;;2.78;;
42104;SDS011;61464;51.472;5.712;2022-08-11T14:21:34;7.05;;;2.90;;
42104;SDS011;61464;51.472;5.712;2022-08-11T14:24:23;4.25;;;2.63;;
42104;SDS011;61464;51.472;5.712;2022-08-11T14:26:50;6.50;;;2.92;;
42104;SDS011;61464;51.472;5.712;2022-08-11T14:29:18;4.47;;;2.58;;
42104;SDS011;61464;51.472;5.712;2022-08-11T14:31:47;5.28;;;2.83;;
42104;SDS011;61464;51.472;5.712;2022-08-11T14:34:18;6.13;;;3.45;;
42104;SDS011;61464;51.472;5.712;2022-08-11T14:36:48;4.35;;;2.58;;
42104;SDS011;61464;51.472;5.712;2022-08-11T14:39:24;7.63;;;2.80;;
42104;SDS011;61464;51.472;5.712;2022-08-11T14:42:16;5.97;;;2.90;;
42104;SDS011;61464;51.472;5.712;2022-08-11T14:45:04;5.72;;;2.70;;
42104;SDS011;61464;51.472;5.712;2022-08-11T14:48:00;8.35;;;2.80;;
42104;SDS011;61464;51.472;5.712;2022-08-11T14:50:32;7.40;;;2.55;;
42104;SDS011;61464;51.472;5.712;2022-08-11T14:53:02;6.10;;;2.72;;
42104;SDS011;61464;51.472;5.712;2022-08-11T14:55:36;6.72;;;2.72;;
42104;SDS011;61464;51.472;5.712;2022-08-11T14:58:24;4.43;;;2.97;;
42104;SDS011;61464;51.472;5.712;2022-08-11T15:00:56;8.93;;;2.60;;
42104;SDS011;61464;51.472;5.712;2022-08-11T15:03:26;4.05;;;2.45;;
42104;SDS011;61464;51.472;5.712;2022-08-11T15:05:56;6.63;;;2.90;;
42104;SDS011;61464;51.472;5.712;2022-08-11T15:08:30;10.15;;;2.67;;
42104;SDS011;61464;51.472;5.712;2022-08-11T15:11:21;4.65;;;2.58;;
42104;SDS011;61464;51.472;5.712;2022-08-11T15:14:11;7.65;;;2.50;;
42104;SDS011;61464;51.472;5.712;2022-08-11T15:16:42;4.13;;;2.40;;
42104;SDS011;61464;51.472;5.712;2022-08-11T15:19:28;5.15;;;2.33;;
42104;SDS011;61464;51.472;5.712;2022-08-11T15:21:57;5.72;;;2.38;;
42104;SDS011;61464;51.472;5.712;2022-08-11T15:27:08;7.13;;;2.08;;
42104;SDS011;61464;51.472;5.712;2022-08-11T15:29:57;4.70;;;2.30;;
42104;SDS011;61464;51.472;5.712;2022-08-11T15:32:45;7.07;;;2.63;;
42104;SDS011;61464;51.472;5.712;2022-08-11T15:35:32;4.03;;;2.17;;
42104;SDS011;61464;51.472;5.712;2022-08-11T15:38:19;3.30;;;1.90;;
42104;SDS011;61464;51.472;5.712;2022-08-11T15:40:47;3.78;;;2.20;;
42104;SDS011;61464;51.472;5.712;2022-08-11T15:43:38;12.18;;;2.38;;
42104;SDS011;61464;51.472;5.712;2022-08-11T15:46:29;4.07;;;2.08;;
42104;SDS011;61464;51.472;5.712;2022-08-11T15:48:58;4.60;;;2.15;;
42104;SDS011;61464;51.472;5.712;2022-08-11T15:54:15;3.70;;;2.00;;
42104;SDS011;61464;51.472;5.712;2022-08-11T15:56:47;6.63;;;2.28;;
42104;SDS011;61464;51.472;5.712;2022-08-11T15:59:17;4.13;;;2.10;;
42104;SDS011;61464;51.472;5.712;2022-08-11T16:02:03;6.93;;;2.40;;
42104;SDS011;61464;51.472;5.712;2022-08-11T16:04:49;4.57;;;2.00;;
42104;SDS011;61464;51.472;5.712;2022-08-11T16:07:16;9.90;;;2.13;;
42104;SDS011;61464;51.472;5.712;2022-08-11T16:09:52;5.53;;;1.58;;
42104;SDS011;61464;51.472;5.712;2022-08-11T16:12:36;5.18;;;1.90;;
42104;SDS011;61464;51.472;5.712;2022-08-11T16:15:48;8.75;;;2.05;;
42104;SDS011;61464;51.472;5.712;2022-08-11T16:18:52;4.43;;;1.85;;
42104;SDS011;61464;51.472;5.712;2022-08-11T16:21:25;9.30;;;2.13;;
42104;SDS011;61464;51.472;5.712;2022-08-11T16:23:57;6.35;;;2.30;;
42104;SDS011;61464;51.472;5.712;2022-08-11T16:26:25;3.45;;;1.85;;
42104;SDS011;61464;51.472;5.712;2022-08-11T16:28:54;3.72;;;2.20;;
42104;SDS011;61464;51.472;5.712;2022-08-11T16:31:24;6.03;;;2.10;;
42104;SDS011;61464;51.472;5.712;2022-08-11T16:33:52;3.00;;;1.95;;
42104;SDS011;61464;51.472;5.712;2022-08-11T16:36:20;2.28;;;1.90;;
42104;SDS011;61464;51.472;5.712;2022-08-11T16:39:09;3.67;;;1.80;;
42104;SDS011;61464;51.472;5.712;2022-08-11T16:46:51;3.40;;;2.15;;
42104;SDS011;61464;51.472;5.712;2022-08-11T16:49:32;4.97;;;2.17;;
42104;SDS011;61464;51.472;5.712;2022-08-11T16:52:03;2.50;;;1.67;;
42104;SDS011;61464;51.472;5.712;2022-08-11T16:54:35;5.50;;;2.10;;
42104;SDS011;61464;51.472;5.712;2022-08-11T16:57:02;3.67;;;1.98;;
42104;SDS011;61464;51.472;5.712;2022-08-11T16:59:52;5.80;;;1.75;;
42104;SDS011;61464;51.472;5.712;2022-08-11T17:02:23;3.50;;;2.17;;
42104;SDS011;61464;51.472;5.712;2022-08-11T17:05:17;4.88;;;2.08;;
42104;SDS011;61464;51.472;5.712;2022-08-11T17:08:06;6.28;;;2.22;;
42104;SDS011;61464;51.472;5.712;2022-08-11T17:10:59;5.28;;;2.22;;
42104;SDS011;61464;51.472;5.712;2022-08-11T17:13:46;2.58;;;2.00;;
42104;SDS011;61464;51.472;5.712;2022-08-11T17:16:22;5.53;;;2.10;;
42104;SDS011;61464;51.472;5.712;2022-08-11T17:19:04;3.25;;;2.00;;
42104;SDS011;61464;51.472;5.712;2022-08-11T17:21:44;7.40;;;2.13;;
42104;SDS011;61464;51.472;5.712;2022-08-11T17:24:32;3.60;;;1.92;;
42104;SDS011;61464;51.472;5.712;2022-08-11T17:27:02;9.75;;;2.30;;
42104;SDS011;61464;51.472;5.712;2022-08-11T17:32:10;7.28;;;2.40;;
42104;SDS011;61464;51.472;5.712;2022-08-11T17:35:02;4.00;;;2.05;;
42104;SDS011;61464;51.472;5.712;2022-08-11T17:37:51;3.22;;;1.90;;
42104;SDS011;61464;51.472;5.712;2022-08-11T17:40:20;4.57;;;2.17;;
42104;SDS011;61464;51.472;5.712;2022-08-11T17:42:48;7.60;;;2.08;;
42104;SDS011;61464;51.472;5.712;2022-08-11T17:45:36;4.53;;;1.98;;
42104;SDS011;61464;51.472;5.712;2022-08-11T17:48:29;4.10;;;2.00;;
42104;SDS011;61464;51.472;5.712;2022-08-11T17:51:07;4.85;;;2.05;;
42104;SDS011;61464;51.472;5.712;2022-08-11T17:54:01;2.67;;;2.20;;
42104;SDS011;61464;51.472;5.712;2022-08-11T17:56:47;3.88;;;1.95;;
42104;SDS011;61464;51.472;5.712;2022-08-11T17:59:34;5.43;;;1.92;;
42104;SDS011;61464;51.472;5.712;2022-08-11T18:05:25;5.35;;;3.03;;
42104;SDS011;61464;51.472;5.712;2022-08-11T18:07:56;5.88;;;2.38;;
42104;SDS011;61464;51.472;5.712;2022-08-11T18:10:44;6.68;;;2.10;;
42104;SDS011;61464;51.472;5.712;2022-08-11T18:13:30;4.88;;;2.17;;
42104;SDS011;61464;51.472;5.712;2022-08-11T18:16:18;5.30;;;2.38;;
42104;SDS011;61464;51.472;5.712;2022-08-11T18:21:52;5.88;;;1.92;;
42104;SDS011;61464;51.472;5.712;2022-08-11T18:24:46;2.80;;;2.10;;
42104;SDS011;61464;51.472;5.712;2022-08-11T18:27:45;7.60;;;2.28;;
42104;SDS011;61464;51.472;5.712;2022-08-11T18:30:35;8.32;;;2.20;;
42104;SDS011;61464;51.472;5.712;2022-08-11T18:33:24;4.15;;;2.03;;
42104;SDS011;61464;51.472;5.712;2022-08-11T18:36:16;3.63;;;2.40;;
42104;SDS011;61464;51.472;5.712;2022-08-11T18:39:05;4.40;;;2.20;;
42104;SDS011;61464;51.472;5.712;2022-08-11T18:41:57;9.98;;;2.50;;
42104;SDS011;61464;51.472;5.712;2022-08-11T18:44:48;5.22;;;2.03;;
42104;SDS011;61464;51.472;5.712;2022-08-11T18:47:35;5.53;;;2.10;;
42104;SDS011;61464;51.472;5.712;2022-08-11T18:50:22;3.72;;;2.05;;
42104;SDS011;61464;51.472;5.712;2022-08-11T18:53:07;2.85;;;1.90;;
42104;SDS011;61464;51.472;5.712;2022-08-11T18:55:55;5.32;;;2.08;;
42104;SDS011;61464;51.472;5.712;2022-08-11T18:58:42;4.43;;;2.22;;
42104;SDS011;61464;51.472;5.712;2022-08-11T19:01:27;4.65;;;2.10;;
42104;SDS011;61464;51.472;5.712;2022-08-11T19:04:15;6.28;;;2.63;;
42104;SDS011;61464;51.472;5.712;2022-08-11T19:07:02;9.07;;;2.53;;
42104;SDS011;61464;51.472;5.712;2022-08-11T19:09:47;4.50;;;2.05;;
42104;SDS011;61464;51.472;5.712;2022-08-11T19:12:36;7.80;;;2.78;;
42104;SDS011;61464;51.472;5.712;2022-08-11T19:15:25;5.28;;;2.50;;
42104;SDS011;61464;51.472;5.712;2022-08-11T19:18:14;2.83;;;2.20;;
42104;SDS011;61464;51.472;5.712;2022-08-11T19:21:04;3.90;;;2.42;;
42104;SDS011;61464;51.472;5.712;2022-08-11T19:23:51;6.40;;;2.38;;
42104;SDS011;61464;51.472;5.712;2022-08-11T19:26:40;5.20;;;2.33;;
42104;SDS011;61464;51.472;5.712;2022-08-11T19:29:26;7.28;;;2.58;;
42104;SDS011;61464;51.472;5.712;2022-08-11T19:32:12;6.00;;;2.38;;
42104;SDS011;61464;51.472;5.712;2022-08-11T19:34:59;7.72;;;2.40;;
42104;SDS011;61464;51.472;5.712;2022-08-11T19:37:46;4.68;;;2.60;;
42104;SDS011;61464;51.472;5.712;2022-08-11T19:40:31;8.95;;;2.47;;
42104;SDS011;61464;51.472;5.712;2022-08-11T19:43:17;8.07;;;2.50;;
42104;SDS011;61464;51.472;5.712;2022-08-11T19:46:04;12.75;;;2.78;;
42104;SDS011;61464;51.472;5.712;2022-08-11T19:48:51;9.63;;;2.63;;
42104;SDS011;61464;51.472;5.712;2022-08-11T19:51:38;5.47;;;2.42;;
42104;SDS011;61464;51.472;5.712;2022-08-11T19:54:24;6.80;;;2.80;;
42104;SDS011;61464;51.472;5.712;2022-08-11T19:57:11;5.13;;;2.63;;
42104;SDS011;61464;51.472;5.712;2022-08-11T19:59:57;6.00;;;2.80;;
42104;SDS011;61464;51.472;5.712;2022-08-11T20:02:42;8.60;;;3.25;;
42104;SDS011;61464;51.472;5.712;2022-08-11T20:05:27;5.95;;;3.00;;
42104;SDS011;61464;51.472;5.712;2022-08-11T20:08:15;7.28;;;2.85;;
42104;SDS011;61464;51.472;5.712;2022-08-11T20:11:03;5.07;;;2.92;;
42104;SDS011;61464;51.472;5.712;2022-08-11T20:13:48;6.30;;;2.90;;
42104;SDS011;61464;51.472;5.712;2022-08-11T20:16:33;6.05;;;3.03;;
42104;SDS011;61464;51.472;5.712;2022-08-11T20:19:19;5.38;;;2.80;;
42104;SDS011;61464;51.472;5.712;2022-08-11T20:22:06;3.75;;;2.58;;
42104;SDS011;61464;51.472;5.712;2022-08-11T20:24:50;8.60;;;2.90;;
42104;SDS011;61464;51.472;5.712;2022-08-11T20:27:36;8.23;;;2.65;;